Página principal
METAR-TAF:

METAR-TAF

Aeroportos :

Gombe Lawanti International Airport

Gombe, Nigéria

latitude: 10-18-19N, longitude: 10-54-31E, altura: 505 m

METAR: em falta

Hora: 11:27 (10:27 UTC)

Previsão

O boletim foi feito há 11 horas e 27 minutos, às 23:00 UTC
Previsão válida de 21 às 00 UTC a 22 às 06 UTC
Vento 5 kt de sudoeste
Visibilidade 10 km ou mais
sem nuvens abaixo de 1500 metros e sem cumulonimbus

TAF: DNGO 202300Z 2100/2206 22005KT CAVOK

Observações e previsões do tempo de mais de 4000 aeroportos (mensagens METAR e TAF).

As estações disponíveis são os pontos amarelos e vermelhos sobre o mapa.

Mova o rato sobre o mapa para ver o nome da estação.

Depois clique no ponto para visualizar as observações e previsões meteorológicas.

Para alterar o mapa : clique nos botões verdes com uma cruz preta para aumentar o zoom; no botão verde com uma pitada de zoom; ou nas setas verdes para mapas adjacentes.


METAR-TAF: